sensor_id;sensor_type;location;lat;lon;timestamp;P1;durP1;ratioP1;P2;durP2;ratioP2
76597;SDS011;65486;53.144;18.134;2023-10-08T00:02:05;11.10;;;2.50;;
76597;SDS011;65486;53.144;18.134;2023-10-08T00:04:32;8.90;;;2.60;;
76597;SDS011;65486;53.144;18.134;2023-10-08T00:07:11;9.40;;;2.40;;
76597;SDS011;65486;53.144;18.134;2023-10-08T00:09:38;7.80;;;2.20;;
76597;SDS011;65486;53.144;18.134;2023-10-08T00:12:07;10.60;;;2.30;;
76597;SDS011;65486;53.144;18.134;2023-10-08T00:14:41;10.10;;;2.50;;
76597;SDS011;65486;53.144;18.134;2023-10-08T00:17:23;9.70;;;1.90;;
76597;SDS011;65486;53.144;18.134;2023-10-08T00:19:53;10.90;;;2.30;;
76597;SDS011;65486;53.144;18.134;2023-10-08T00:22:20;13.70;;;2.40;;
76597;SDS011;65486;53.144;18.134;2023-10-08T00:24:52;7.60;;;1.70;;
76597;SDS011;65486;53.144;18.134;2023-10-08T00:27:24;9.30;;;2.10;;
76597;SDS011;65486;53.144;18.134;2023-10-08T00:29:54;8.60;;;1.80;;
76597;SDS011;65486;53.144;18.134;2023-10-08T00:32:38;9.90;;;1.60;;
76597;SDS011;65486;53.144;18.134;2023-10-08T00:35:13;8.60;;;1.90;;
76597;SDS011;65486;53.144;18.134;2023-10-08T00:37:47;7.80;;;1.70;;
76597;SDS011;65486;53.144;18.134;2023-10-08T00:40:18;7.10;;;1.90;;
76597;SDS011;65486;53.144;18.134;2023-10-08T00:42:48;9.50;;;1.80;;
76597;SDS011;65486;53.144;18.134;2023-10-08T00:45:23;7.70;;;1.80;;
76597;SDS011;65486;53.144;18.134;2023-10-08T00:47:54;6.60;;;1.60;;
76597;SDS011;65486;53.144;18.134;2023-10-08T00:50:23;8.50;;;2.00;;
76597;SDS011;65486;53.144;18.134;2023-10-08T00:52:58;9.50;;;2.40;;
76597;SDS011;65486;53.144;18.134;2023-10-08T00:55:35;6.70;;;1.50;;
76597;SDS011;65486;53.144;18.134;2023-10-08T00:58:07;6.60;;;1.70;;
76597;SDS011;65486;53.144;18.134;2023-10-08T01:00:42;7.50;;;1.80;;
76597;SDS011;65486;53.144;18.134;2023-10-08T01:03:19;5.60;;;1.40;;
76597;SDS011;65486;53.144;18.134;2023-10-08T01:05:47;9.40;;;1.70;;
76597;SDS011;65486;53.144;18.134;2023-10-08T01:08:30;6.60;;;1.50;;
76597;SDS011;65486;53.144;18.134;2023-10-08T01:11:19;6.80;;;1.10;;
76597;SDS011;65486;53.144;18.134;2023-10-08T01:14:19;5.10;;;1.00;;
76597;SDS011;65486;53.144;18.134;2023-10-08T01:16:51;7.30;;;2.00;;
76597;SDS011;65486;53.144;18.134;2023-10-08T01:19:19;6.80;;;1.70;;
76597;SDS011;65486;53.144;18.134;2023-10-08T01:21:47;7.80;;;1.40;;
76597;SDS011;65486;53.144;18.134;2023-10-08T01:24:14;4.30;;;1.30;;
76597;SDS011;65486;53.144;18.134;2023-10-08T01:26:44;7.80;;;1.00;;
76597;SDS011;65486;53.144;18.134;2023-10-08T01:29:14;4.10;;;1.10;;
76597;SDS011;65486;53.144;18.134;2023-10-08T01:31:47;4.30;;;0.90;;
76597;SDS011;65486;53.144;18.134;2023-10-08T01:37:48;6.50;;;0.90;;
76597;SDS011;65486;53.144;18.134;2023-10-08T01:40:20;4.20;;;1.00;;
76597;SDS011;65486;53.144;18.134;2023-10-08T01:42:50;4.90;;;0.90;;
76597;SDS011;65486;53.144;18.134;2023-10-08T01:45:21;4.30;;;1.20;;
76597;SDS011;65486;53.144;18.134;2023-10-08T01:47:51;3.20;;;1.00;;
76597;SDS011;65486;53.144;18.134;2023-10-08T01:50:24;4.10;;;1.20;;
76597;SDS011;65486;53.144;18.134;2023-10-08T01:52:53;4.50;;;0.90;;
76597;SDS011;65486;53.144;18.134;2023-10-08T01:55:43;4.30;;;1.00;;
76597;SDS011;65486;53.144;18.134;2023-10-08T01:58:16;2.40;;;0.90;;
76597;SDS011;65486;53.144;18.134;2023-10-08T02:00:48;2.10;;;0.80;;
76597;SDS011;65486;53.144;18.134;2023-10-08T02:03:40;3.90;;;1.00;;
76597;SDS011;65486;53.144;18.134;2023-10-08T02:06:08;5.00;;;0.80;;
76597;SDS011;65486;53.144;18.134;2023-10-08T02:08:35;3.80;;;1.00;;
76597;SDS011;65486;53.144;18.134;2023-10-08T02:11:04;2.40;;;0.70;;
76597;SDS011;65486;53.144;18.134;2023-10-08T02:13:31;2.00;;;0.90;;
76597;SDS011;65486;53.144;18.134;2023-10-08T02:15:58;3.40;;;0.50;;
76597;SDS011;65486;53.144;18.134;2023-10-08T02:18:30;2.80;;;0.70;;
76597;SDS011;65486;53.144;18.134;2023-10-08T02:20:58;1.20;;;0.60;;
76597;SDS011;65486;53.144;18.134;2023-10-08T02:23:33;2.20;;;0.70;;
76597;SDS011;65486;53.144;18.134;2023-10-08T02:26:01;2.10;;;0.50;;
76597;SDS011;65486;53.144;18.134;2023-10-08T02:28:30;2.80;;;0.50;;
76597;SDS011;65486;53.144;18.134;2023-10-08T02:30:56;2.10;;;0.50;;
76597;SDS011;65486;53.144;18.134;2023-10-08T02:33:27;3.40;;;0.70;;
76597;SDS011;65486;53.144;18.134;2023-10-08T02:35:54;1.50;;;0.50;;
76597;SDS011;65486;53.144;18.134;2023-10-08T02:38:21;1.40;;;0.50;;
76597;SDS011;65486;53.144;18.134;2023-10-08T02:40:49;1.50;;;0.40;;
76597;SDS011;65486;53.144;18.134;2023-10-08T02:43:19;1.50;;;0.50;;
76597;SDS011;65486;53.144;18.134;2023-10-08T02:45:46;3.10;;;0.60;;
76597;SDS011;65486;53.144;18.134;2023-10-08T02:48:16;1.50;;;0.50;;
76597;SDS011;65486;53.144;18.134;2023-10-08T02:50:44;1.30;;;0.40;;
76597;SDS011;65486;53.144;18.134;2023-10-08T02:53:12;2.40;;;0.40;;
76597;SDS011;65486;53.144;18.134;2023-10-08T02:55:46;1.60;;;0.30;;
76597;SDS011;65486;53.144;18.134;2023-10-08T02:58:13;2.20;;;0.40;;
76597;SDS011;65486;53.144;18.134;2023-10-08T03:00:42;1.00;;;0.50;;
76597;SDS011;65486;53.144;18.134;2023-10-08T03:03:09;2.00;;;0.40;;
76597;SDS011;65486;53.144;18.134;2023-10-08T03:05:45;2.00;;;0.30;;
76597;SDS011;65486;53.144;18.134;2023-10-08T03:08:14;1.20;;;0.30;;
76597;SDS011;65486;53.144;18.134;2023-10-08T03:10:50;1.40;;;0.50;;
76597;SDS011;65486;53.144;18.134;2023-10-08T03:13:22;1.80;;;0.50;;
76597;SDS011;65486;53.144;18.134;2023-10-08T03:15:49;1.40;;;0.50;;
76597;SDS011;65486;53.144;18.134;2023-10-08T03:18:30;1.20;;;0.40;;
76597;SDS011;65486;53.144;18.134;2023-10-08T03:21:03;1.40;;;0.40;;
76597;SDS011;65486;53.144;18.134;2023-10-08T03:23:32;2.30;;;0.50;;
76597;SDS011;65486;53.144;18.134;2023-10-08T03:26:03;1.10;;;0.50;;
76597;SDS011;65486;53.144;18.134;2023-10-08T03:28:56;2.10;;;0.50;;
76597;SDS011;65486;53.144;18.134;2023-10-08T03:31:26;1.60;;;0.30;;
76597;SDS011;65486;53.144;18.134;2023-10-08T03:34:13;1.90;;;0.50;;
76597;SDS011;65486;53.144;18.134;2023-10-08T03:36:41;1.80;;;0.30;;
76597;SDS011;65486;53.144;18.134;2023-10-08T03:39:12;1.30;;;0.40;;
76597;SDS011;65486;53.144;18.134;2023-10-08T03:41:43;2.90;;;0.40;;
76597;SDS011;65486;53.144;18.134;2023-10-08T03:44:31;1.40;;;0.40;;
76597;SDS011;65486;53.144;18.134;2023-10-08T03:46:58;2.30;;;0.40;;
76597;SDS011;65486;53.144;18.134;2023-10-08T03:49:25;1.50;;;0.40;;
76597;SDS011;65486;53.144;18.134;2023-10-08T03:51:52;1.40;;;0.40;;
76597;SDS011;65486;53.144;18.134;2023-10-08T03:54:19;2.20;;;0.40;;
76597;SDS011;65486;53.144;18.134;2023-10-08T03:56:57;1.10;;;0.60;;
76597;SDS011;65486;53.144;18.134;2023-10-08T03:59:24;2.20;;;0.40;;
76597;SDS011;65486;53.144;18.134;2023-10-08T04:01:58;1.60;;;0.40;;
76597;SDS011;65486;53.144;18.134;2023-10-08T04:04:46;1.70;;;0.40;;
76597;SDS011;65486;53.144;18.134;2023-10-08T04:07:16;0.80;;;0.30;;
76597;SDS011;65486;53.144;18.134;2023-10-08T04:10:06;1.40;;;0.40;;
76597;SDS011;65486;53.144;18.134;2023-10-08T04:12:36;1.10;;;0.30;;
76597;SDS011;65486;53.144;18.134;2023-10-08T04:15:10;2.60;;;0.40;;
76597;SDS011;65486;53.144;18.134;2023-10-08T04:17:40;1.70;;;0.50;;
76597;SDS011;65486;53.144;18.134;2023-10-08T04:20:18;1.10;;;0.30;;
76597;SDS011;65486;53.144;18.134;2023-10-08T04:23:06;1.90;;;0.30;;
76597;SDS011;65486;53.144;18.134;2023-10-08T04:25:45;1.40;;;0.60;;
76597;SDS011;65486;53.144;18.134;2023-10-08T04:28:13;1.80;;;0.40;;
76597;SDS011;65486;53.144;18.134;2023-10-08T04:30:47;1.00;;;0.40;;
76597;SDS011;65486;53.144;18.134;2023-10-08T04:33:14;1.00;;;0.30;;
76597;SDS011;65486;53.144;18.134;2023-10-08T04:35:42;1.30;;;0.30;;
76597;SDS011;65486;53.144;18.134;2023-10-08T04:38:22;1.30;;;0.30;;
76597;SDS011;65486;53.144;18.134;2023-10-08T04:40:52;1.90;;;0.70;;
76597;SDS011;65486;53.144;18.134;2023-10-08T04:43:20;2.70;;;0.50;;
76597;SDS011;65486;53.144;18.134;2023-10-08T04:45:51;2.80;;;0.40;;
76597;SDS011;65486;53.144;18.134;2023-10-08T04:48:19;3.60;;;0.30;;
76597;SDS011;65486;53.144;18.134;2023-10-08T04:50:47;1.30;;;0.30;;
76597;SDS011;65486;53.144;18.134;2023-10-08T04:53:25;1.80;;;0.40;;
76597;SDS011;65486;53.144;18.134;2023-10-08T04:56:02;2.10;;;0.40;;
76597;SDS011;65486;53.144;18.134;2023-10-08T04:58:40;1.60;;;0.40;;
76597;SDS011;65486;53.144;18.134;2023-10-08T05:01:07;1.10;;;0.40;;
76597;SDS011;65486;53.144;18.134;2023-10-08T05:03:47;1.20;;;0.30;;
76597;SDS011;65486;53.144;18.134;2023-10-08T05:06:38;1.80;;;0.50;;
76597;SDS011;65486;53.144;18.134;2023-10-08T05:09:06;2.60;;;0.40;;
76597;SDS011;65486;53.144;18.134;2023-10-08T05:11:50;1.80;;;0.40;;
76597;SDS011;65486;53.144;18.134;2023-10-08T05:14:21;1.40;;;0.30;;
76597;SDS011;65486;53.144;18.134;2023-10-08T05:17:00;1.10;;;0.40;;
76597;SDS011;65486;53.144;18.134;2023-10-08T05:19:38;0.80;;;0.40;;
76597;SDS011;65486;53.144;18.134;2023-10-08T05:22:15;2.20;;;0.40;;
76597;SDS011;65486;53.144;18.134;2023-10-08T05:24:55;1.50;;;0.40;;
76597;SDS011;65486;53.144;18.134;2023-10-08T05:27:33;1.30;;;0.50;;
76597;SDS011;65486;53.144;18.134;2023-10-08T05:30:18;2.30;;;0.50;;
76597;SDS011;65486;53.144;18.134;2023-10-08T05:32:55;1.60;;;0.50;;
76597;SDS011;65486;53.144;18.134;2023-10-08T05:35:41;2.30;;;0.60;;
76597;SDS011;65486;53.144;18.134;2023-10-08T05:38:10;2.00;;;0.70;;
76597;SDS011;65486;53.144;18.134;2023-10-08T05:41:01;2.20;;;0.70;;
76597;SDS011;65486;53.144;18.134;2023-10-08T05:43:28;9.10;;;0.70;;
76597;SDS011;65486;53.144;18.134;2023-10-08T05:46:11;2.10;;;0.50;;
76597;SDS011;65486;53.144;18.134;2023-10-08T05:48:48;2.30;;;0.50;;
76597;SDS011;65486;53.144;18.134;2023-10-08T05:51:35;1.00;;;0.30;;
76597;SDS011;65486;53.144;18.134;2023-10-08T05:54:22;3.90;;;0.40;;
76597;SDS011;65486;53.144;18.134;2023-10-08T05:57:00;1.80;;;0.40;;
76597;SDS011;65486;53.144;18.134;2023-10-08T05:59:41;2.20;;;0.60;;
76597;SDS011;65486;53.144;18.134;2023-10-08T06:02:40;1.80;;;0.50;;
76597;SDS011;65486;53.144;18.134;2023-10-08T06:05:12;1.70;;;0.40;;
76597;SDS011;65486;53.144;18.134;2023-10-08T06:07:48;2.20;;;0.50;;
76597;SDS011;65486;53.144;18.134;2023-10-08T06:15:48;1.20;;;0.50;;
76597;SDS011;65486;53.144;18.134;2023-10-08T06:18:26;3.00;;;0.40;;
76597;SDS011;65486;53.144;18.134;2023-10-08T06:20:57;2.00;;;0.40;;
76597;SDS011;65486;53.144;18.134;2023-10-08T06:23:28;1.80;;;0.50;;
76597;SDS011;65486;53.144;18.134;2023-10-08T06:26:02;1.00;;;0.40;;
76597;SDS011;65486;53.144;18.134;2023-10-08T06:28:42;3.60;;;0.60;;
76597;SDS011;65486;53.144;18.134;2023-10-08T06:31:10;1.70;;;0.40;;
76597;SDS011;65486;53.144;18.134;2023-10-08T06:33:38;2.50;;;0.60;;
76597;SDS011;65486;53.144;18.134;2023-10-08T06:36:07;2.70;;;0.70;;
76597;SDS011;65486;53.144;18.134;2023-10-08T06:38:34;2.90;;;0.80;;
76597;SDS011;65486;53.144;18.134;2023-10-08T06:41:03;2.00;;;0.90;;
76597;SDS011;65486;53.144;18.134;2023-10-08T06:43:51;3.10;;;0.90;;
76597;SDS011;65486;53.144;18.134;2023-10-08T06:46:29;4.40;;;1.20;;
76597;SDS011;65486;53.144;18.134;2023-10-08T06:48:59;2.40;;;1.10;;
76597;SDS011;65486;53.144;18.134;2023-10-08T06:51:26;2.10;;;0.90;;
76597;SDS011;65486;53.144;18.134;2023-10-08T06:53:57;2.00;;;1.00;;
76597;SDS011;65486;53.144;18.134;2023-10-08T06:56:28;2.20;;;1.10;;
76597;SDS011;65486;53.144;18.134;2023-10-08T06:58:57;2.40;;;1.20;;
76597;SDS011;65486;53.144;18.134;2023-10-08T07:01:25;2.40;;;1.00;;
76597;SDS011;65486;53.144;18.134;2023-10-08T07:04:05;1.70;;;0.80;;
76597;SDS011;65486;53.144;18.134;2023-10-08T07:06:41;2.40;;;1.20;;
76597;SDS011;65486;53.144;18.134;2023-10-08T07:09:13;2.60;;;0.90;;
76597;SDS011;65486;53.144;18.134;2023-10-08T07:11:51;1.70;;;1.00;;
76597;SDS011;65486;53.144;18.134;2023-10-08T07:14:25;3.70;;;0.80;;
76597;SDS011;65486;53.144;18.134;2023-10-08T07:16:57;1.40;;;0.80;;
76597;SDS011;65486;53.144;18.134;2023-10-08T07:19:29;3.00;;;1.40;;
76597;SDS011;65486;53.144;18.134;2023-10-08T07:22:04;2.50;;;1.00;;
76597;SDS011;65486;53.144;18.134;2023-10-08T07:24:44;1.50;;;0.80;;
76597;SDS011;65486;53.144;18.134;2023-10-08T07:27:18;1.10;;;0.80;;
76597;SDS011;65486;53.144;18.134;2023-10-08T07:29:51;2.80;;;1.80;;
76597;SDS011;65486;53.144;18.134;2023-10-08T07:32:22;2.40;;;0.80;;
76597;SDS011;65486;53.144;18.134;2023-10-08T07:34:52;1.40;;;0.90;;
76597;SDS011;65486;53.144;18.134;2023-10-08T07:37:24;1.70;;;1.10;;
76597;SDS011;65486;53.144;18.134;2023-10-08T07:39:53;1.80;;;0.90;;
76597;SDS011;65486;53.144;18.134;2023-10-08T07:42:21;1.30;;;1.10;;
76597;SDS011;65486;53.144;18.134;2023-10-08T07:44:48;2.40;;;0.70;;
76597;SDS011;65486;53.144;18.134;2023-10-08T07:47:17;1.70;;;0.90;;
76597;SDS011;65486;53.144;18.134;2023-10-08T07:49:50;3.20;;;0.80;;
76597;SDS011;65486;53.144;18.134;2023-10-08T07:52:19;3.20;;;1.10;;
76597;SDS011;65486;53.144;18.134;2023-10-08T07:54:50;2.60;;;1.50;;
76597;SDS011;65486;53.144;18.134;2023-10-08T07:57:17;1.10;;;0.70;;
76597;SDS011;65486;53.144;18.134;2023-10-08T07:59:53;1.10;;;0.60;;
76597;SDS011;65486;53.144;18.134;2023-10-08T08:02:27;1.40;;;0.60;;
76597;SDS011;65486;53.144;18.134;2023-10-08T08:04:54;2.40;;;1.00;;
76597;SDS011;65486;53.144;18.134;2023-10-08T08:07:21;1.50;;;0.90;;
76597;SDS011;65486;53.144;18.134;2023-10-08T08:09:50;1.90;;;1.40;;
76597;SDS011;65486;53.144;18.134;2023-10-08T08:12:18;2.00;;;1.00;;
76597;SDS011;65486;53.144;18.134;2023-10-08T08:14:48;1.60;;;1.00;;
76597;SDS011;65486;53.144;18.134;2023-10-08T08:17:15;1.40;;;1.00;;
76597;SDS011;65486;53.144;18.134;2023-10-08T08:19:49;2.00;;;1.20;;
76597;SDS011;65486;53.144;18.134;2023-10-08T08:22:18;2.30;;;1.50;;
76597;SDS011;65486;53.144;18.134;2023-10-08T08:24:52;1.60;;;0.60;;
76597;SDS011;65486;53.144;18.134;2023-10-08T08:27:22;2.40;;;1.60;;
76597;SDS011;65486;53.144;18.134;2023-10-08T08:29:58;1.40;;;0.70;;
76597;SDS011;65486;53.144;18.134;2023-10-08T08:32:37;1.70;;;1.10;;
76597;SDS011;65486;53.144;18.134;2023-10-08T08:35:09;3.40;;;1.50;;
76597;SDS011;65486;53.144;18.134;2023-10-08T08:37:37;1.90;;;1.20;;
76597;SDS011;65486;53.144;18.134;2023-10-08T08:40:09;2.10;;;0.80;;
76597;SDS011;65486;53.144;18.134;2023-10-08T08:42:47;2.00;;;1.40;;
76597;SDS011;65486;53.144;18.134;2023-10-08T08:45:18;1.80;;;0.90;;
76597;SDS011;65486;53.144;18.134;2023-10-08T08:47:47;1.70;;;1.00;;
76597;SDS011;65486;53.144;18.134;2023-10-08T08:50:14;1.40;;;0.80;;
76597;SDS011;65486;53.144;18.134;2023-10-08T08:52:41;1.10;;;0.80;;
76597;SDS011;65486;53.144;18.134;2023-10-08T08:55:09;1.50;;;0.90;;
76597;SDS011;65486;53.144;18.134;2023-10-08T08:57:41;3.00;;;1.20;;
76597;SDS011;65486;53.144;18.134;2023-10-08T09:00:13;1.40;;;1.00;;
76597;SDS011;65486;53.144;18.134;2023-10-08T09:02:41;1.40;;;1.00;;
76597;SDS011;65486;53.144;18.134;2023-10-08T09:05:08;1.90;;;1.00;;
76597;SDS011;65486;53.144;18.134;2023-10-08T09:07:57;2.10;;;0.80;;
76597;SDS011;65486;53.144;18.134;2023-10-08T09:10:30;1.80;;;1.30;;
76597;SDS011;65486;53.144;18.134;2023-10-08T09:13:04;1.60;;;0.70;;
76597;SDS011;65486;53.144;18.134;2023-10-08T09:15:33;2.30;;;0.80;;
76597;SDS011;65486;53.144;18.134;2023-10-08T09:18:01;1.90;;;0.80;;
76597;SDS011;65486;53.144;18.134;2023-10-08T09:20:31;1.30;;;0.50;;
76597;SDS011;65486;53.144;18.134;2023-10-08T09:23:13;2.50;;;1.20;;
76597;SDS011;65486;53.144;18.134;2023-10-08T09:25:44;2.30;;;0.80;;
76597;SDS011;65486;53.144;18.134;2023-10-08T09:28:12;2.30;;;1.00;;
76597;SDS011;65486;53.144;18.134;2023-10-08T09:30:45;1.40;;;0.80;;
76597;SDS011;65486;53.144;18.134;2023-10-08T09:33:12;1.30;;;0.70;;
76597;SDS011;65486;53.144;18.134;2023-10-08T09:35:40;1.40;;;0.90;;
76597;SDS011;65486;53.144;18.134;2023-10-08T09:38:09;3.10;;;1.10;;
76597;SDS011;65486;53.144;18.134;2023-10-08T09:40:42;1.30;;;0.80;;
76597;SDS011;65486;53.144;18.134;2023-10-08T09:43:13;1.40;;;0.60;;
76597;SDS011;65486;53.144;18.134;2023-10-08T09:45:55;1.30;;;0.70;;
76597;SDS011;65486;53.144;18.134;2023-10-08T09:48:49;1.90;;;0.90;;
76597;SDS011;65486;53.144;18.134;2023-10-08T09:51:20;1.40;;;0.90;;
76597;SDS011;65486;53.144;18.134;2023-10-08T09:53:51;2.30;;;1.20;;
76597;SDS011;65486;53.144;18.134;2023-10-08T09:56:26;2.60;;;0.90;;
76597;SDS011;65486;53.144;18.134;2023-10-08T09:58:58;2.10;;;0.90;;
76597;SDS011;65486;53.144;18.134;2023-10-08T10:01:27;1.50;;;0.90;;
76597;SDS011;65486;53.144;18.134;2023-10-08T10:03:55;1.40;;;1.00;;
76597;SDS011;65486;53.144;18.134;2023-10-08T10:06:26;1.40;;;1.00;;
76597;SDS011;65486;53.144;18.134;2023-10-08T10:08:56;4.30;;;1.40;;
76597;SDS011;65486;53.144;18.134;2023-10-08T10:11:30;1.70;;;0.90;;
76597;SDS011;65486;53.144;18.134;2023-10-08T10:13:59;4.50;;;1.00;;
76597;SDS011;65486;53.144;18.134;2023-10-08T10:16:27;1.80;;;1.20;;
76597;SDS011;65486;53.144;18.134;2023-10-08T10:18:55;3.20;;;1.00;;
76597;SDS011;65486;53.144;18.134;2023-10-08T10:21:31;2.70;;;0.70;;
76597;SDS011;65486;53.144;18.134;2023-10-08T10:23:59;2.00;;;0.90;;
76597;SDS011;65486;53.144;18.134;2023-10-08T10:26:30;1.40;;;0.90;;
76597;SDS011;65486;53.144;18.134;2023-10-08T10:31:45;1.50;;;0.70;;
76597;SDS011;65486;53.144;18.134;2023-10-08T10:34:25;1.40;;;0.80;;
76597;SDS011;65486;53.144;18.134;2023-10-08T10:36:57;1.50;;;0.60;;
76597;SDS011;65486;53.144;18.134;2023-10-08T10:39:25;1.70;;;0.70;;
76597;SDS011;65486;53.144;18.134;2023-10-08T10:41:55;2.20;;;0.60;;
76597;SDS011;65486;53.144;18.134;2023-10-08T10:44:30;2.60;;;0.90;;
76597;SDS011;65486;53.144;18.134;2023-10-08T10:47:00;2.20;;;0.70;;
76597;SDS011;65486;53.144;18.134;2023-10-08T10:49:42;2.20;;;0.70;;
76597;SDS011;65486;53.144;18.134;2023-10-08T10:52:26;1.30;;;0.60;;
76597;SDS011;65486;53.144;18.134;2023-10-08T10:55:11;1.60;;;0.50;;
76597;SDS011;65486;53.144;18.134;2023-10-08T10:57:43;1.40;;;0.60;;
76597;SDS011;65486;53.144;18.134;2023-10-08T11:00:23;1.40;;;0.50;;
76597;SDS011;65486;53.144;18.134;2023-10-08T11:03:01;2.70;;;0.50;;
76597;SDS011;65486;53.144;18.134;2023-10-08T11:05:30;1.80;;;0.60;;
76597;SDS011;65486;53.144;18.134;2023-10-08T11:08:04;2.50;;;0.60;;
76597;SDS011;65486;53.144;18.134;2023-10-08T11:10:33;1.90;;;0.50;;
76597;SDS011;65486;53.144;18.134;2023-10-08T11:13:11;1.40;;;0.50;;
76597;SDS011;65486;53.144;18.134;2023-10-08T11:15:45;1.70;;;0.80;;
76597;SDS011;65486;53.144;18.134;2023-10-08T11:18:21;1.60;;;0.70;;
76597;SDS011;65486;53.144;18.134;2023-10-08T11:20:50;2.00;;;0.90;;
76597;SDS011;65486;53.144;18.134;2023-10-08T11:23:36;1.60;;;0.40;;
76597;SDS011;65486;53.144;18.134;2023-10-08T11:26:08;1.50;;;0.60;;
76597;SDS011;65486;53.144;18.134;2023-10-08T11:28:38;3.60;;;0.60;;
76597;SDS011;65486;53.144;18.134;2023-10-08T11:31:12;1.90;;;0.70;;
76597;SDS011;65486;53.144;18.134;2023-10-08T11:33:41;2.00;;;0.60;;
76597;SDS011;65486;53.144;18.134;2023-10-08T11:36:10;2.40;;;0.70;;
76597;SDS011;65486;53.144;18.134;2023-10-08T11:38:46;1.70;;;0.60;;
76597;SDS011;65486;53.144;18.134;2023-10-08T11:41:33;1.70;;;0.50;;
76597;SDS011;65486;53.144;18.134;2023-10-08T11:44:38;1.20;;;0.50;;
76597;SDS011;65486;53.144;18.134;2023-10-08T11:47:08;1.80;;;0.70;;
76597;SDS011;65486;53.144;18.134;2023-10-08T11:49:40;2.80;;;0.40;;
76597;SDS011;65486;53.144;18.134;2023-10-08T11:52:39;1.90;;;0.60;;
76597;SDS011;65486;53.144;18.134;2023-10-08T11:55:08;1.10;;;0.40;;
76597;SDS011;65486;53.144;18.134;2023-10-08T11:57:36;2.60;;;0.40;;
76597;SDS011;65486;53.144;18.134;2023-10-08T12:00:12;1.80;;;0.40;;
76597;SDS011;65486;53.144;18.134;2023-10-08T12:02:46;1.20;;;0.50;;
76597;SDS011;65486;53.144;18.134;2023-10-08T12:05:14;0.90;;;0.30;;
76597;SDS011;65486;53.144;18.134;2023-10-08T12:07:53;1.10;;;0.30;;
76597;SDS011;65486;53.144;18.134;2023-10-08T12:10:24;1.10;;;0.40;;
76597;SDS011;65486;53.144;18.134;2023-10-08T12:12:51;0.90;;;0.40;;
76597;SDS011;65486;53.144;18.134;2023-10-08T12:15:28;1.20;;;0.40;;
76597;SDS011;65486;53.144;18.134;2023-10-08T12:18:05;0.80;;;0.30;;
76597;SDS011;65486;53.144;18.134;2023-10-08T12:20:35;0.70;;;0.30;;
76597;SDS011;65486;53.144;18.134;2023-10-08T12:23:04;1.90;;;0.40;;
76597;SDS011;65486;53.144;18.134;2023-10-08T12:25:37;1.50;;;0.50;;
76597;SDS011;65486;53.144;18.134;2023-10-08T12:28:04;2.80;;;0.40;;
76597;SDS011;65486;53.144;18.134;2023-10-08T12:30:31;1.90;;;0.40;;
76597;SDS011;65486;53.144;18.134;2023-10-08T12:33:01;1.20;;;0.50;;
76597;SDS011;65486;53.144;18.134;2023-10-08T12:35:28;3.20;;;0.70;;
76597;SDS011;65486;53.144;18.134;2023-10-08T12:37:56;2.10;;;0.40;;
76597;SDS011;65486;53.144;18.134;2023-10-08T12:40:23;2.40;;;0.70;;
76597;SDS011;65486;53.144;18.134;2023-10-08T12:42:51;5.70;;;0.40;;
76597;SDS011;65486;53.144;18.134;2023-10-08T12:45:18;1.70;;;0.30;;
76597;SDS011;65486;53.144;18.134;2023-10-08T12:47:51;1.60;;;0.30;;
76597;SDS011;65486;53.144;18.134;2023-10-08T12:50:19;1.20;;;0.60;;
76597;SDS011;65486;53.144;18.134;2023-10-08T12:52:55;1.20;;;0.40;;
76597;SDS011;65486;53.144;18.134;2023-10-08T12:55:24;2.80;;;0.30;;
76597;SDS011;65486;53.144;18.134;2023-10-08T12:57:51;0.80;;;0.30;;
76597;SDS011;65486;53.144;18.134;2023-10-08T13:00:25;1.10;;;0.40;;
76597;SDS011;65486;53.144;18.134;2023-10-08T13:02:52;1.30;;;0.50;;
76597;SDS011;65486;53.144;18.134;2023-10-08T13:05:24;1.10;;;0.40;;
76597;SDS011;65486;53.144;18.134;2023-10-08T13:07:55;1.30;;;0.40;;
76597;SDS011;65486;53.144;18.134;2023-10-08T13:10:25;1.20;;;0.40;;
76597;SDS011;65486;53.144;18.134;2023-10-08T13:12:52;1.50;;;0.50;;
76597;SDS011;65486;53.144;18.134;2023-10-08T13:15:19;0.90;;;0.30;;
76597;SDS011;65486;53.144;18.134;2023-10-08T13:17:46;1.20;;;0.40;;
76597;SDS011;65486;53.144;18.134;2023-10-08T13:20:14;2.10;;;0.40;;
76597;SDS011;65486;53.144;18.134;2023-10-08T13:22:44;2.30;;;0.50;;
76597;SDS011;65486;53.144;18.134;2023-10-08T13:25:13;5.30;;;0.40;;
76597;SDS011;65486;53.144;18.134;2023-10-08T13:27:43;1.00;;;0.40;;
76597;SDS011;65486;53.144;18.134;2023-10-08T13:30:10;2.80;;;0.30;;
76597;SDS011;65486;53.144;18.134;2023-10-08T13:32:37;5.20;;;0.30;;
76597;SDS011;65486;53.144;18.134;2023-10-08T13:35:04;2.70;;;0.50;;
76597;SDS011;65486;53.144;18.134;2023-10-08T13:37:34;1.70;;;0.40;;
76597;SDS011;65486;53.144;18.134;2023-10-08T13:40:04;3.20;;;0.40;;
76597;SDS011;65486;53.144;18.134;2023-10-08T13:42:31;1.60;;;0.40;;
76597;SDS011;65486;53.144;18.134;2023-10-08T13:44:58;0.70;;;0.20;;
76597;SDS011;65486;53.144;18.134;2023-10-08T13:47:26;1.10;;;0.40;;
76597;SDS011;65486;53.144;18.134;2023-10-08T13:49:56;1.10;;;0.40;;
76597;SDS011;65486;53.144;18.134;2023-10-08T13:52:25;1.80;;;0.50;;
76597;SDS011;65486;53.144;18.134;2023-10-08T13:54:53;2.10;;;0.50;;
76597;SDS011;65486;53.144;18.134;2023-10-08T13:57:21;1.70;;;0.50;;
76597;SDS011;65486;53.144;18.134;2023-10-08T13:59:51;1.60;;;0.40;;
76597;SDS011;65486;53.144;18.134;2023-10-08T14:02:20;2.80;;;0.40;;
76597;SDS011;65486;53.144;18.134;2023-10-08T14:04:48;1.30;;;0.60;;
76597;SDS011;65486;53.144;18.134;2023-10-08T14:07:16;1.40;;;0.40;;
76597;SDS011;65486;53.144;18.134;2023-10-08T14:09:44;1.30;;;0.40;;
76597;SDS011;65486;53.144;18.134;2023-10-08T14:12:16;2.90;;;0.50;;
76597;SDS011;65486;53.144;18.134;2023-10-08T14:14:43;0.90;;;0.40;;
76597;SDS011;65486;53.144;18.134;2023-10-08T14:17:13;1.70;;;0.50;;
76597;SDS011;65486;53.144;18.134;2023-10-08T14:20:03;1.20;;;0.30;;
76597;SDS011;65486;53.144;18.134;2023-10-08T14:22:39;2.60;;;0.50;;
76597;SDS011;65486;53.144;18.134;2023-10-08T14:25:11;1.70;;;0.60;;
76597;SDS011;65486;53.144;18.134;2023-10-08T14:27:41;1.20;;;0.50;;
76597;SDS011;65486;53.144;18.134;2023-10-08T14:30:23;1.40;;;0.50;;
76597;SDS011;65486;53.144;18.134;2023-10-08T14:32:53;3.20;;;0.60;;
76597;SDS011;65486;53.144;18.134;2023-10-08T14:35:23;1.50;;;0.40;;
76597;SDS011;65486;53.144;18.134;2023-10-08T14:38:10;1.40;;;0.60;;
76597;SDS011;65486;53.144;18.134;2023-10-08T14:40:55;1.90;;;0.60;;
76597;SDS011;65486;53.144;18.134;2023-10-08T14:43:42;0.80;;;0.30;;
76597;SDS011;65486;53.144;18.134;2023-10-08T14:46:10;0.80;;;0.40;;
76597;SDS011;65486;53.144;18.134;2023-10-08T14:48:39;2.90;;;0.40;;
76597;SDS011;65486;53.144;18.134;2023-10-08T14:51:07;1.50;;;0.40;;
76597;SDS011;65486;53.144;18.134;2023-10-08T14:53:35;1.10;;;0.30;;
76597;SDS011;65486;53.144;18.134;2023-10-08T14:56:05;1.00;;;0.40;;
76597;SDS011;65486;53.144;18.134;2023-10-08T14:58:32;2.70;;;0.60;;
76597;SDS011;65486;53.144;18.134;2023-10-08T15:00:59;1.40;;;0.40;;
76597;SDS011;65486;53.144;18.134;2023-10-08T15:03:27;1.20;;;0.40;;
76597;SDS011;65486;53.144;18.134;2023-10-08T15:05:56;2.60;;;0.40;;
76597;SDS011;65486;53.144;18.134;2023-10-08T15:08:24;1.60;;;0.40;;
76597;SDS011;65486;53.144;18.134;2023-10-08T15:10:54;1.50;;;0.50;;
76597;SDS011;65486;53.144;18.134;2023-10-08T15:13:21;1.40;;;0.50;;
76597;SDS011;65486;53.144;18.134;2023-10-08T15:15:48;1.50;;;0.50;;
76597;SDS011;65486;53.144;18.134;2023-10-08T15:18:16;3.50;;;0.70;;